createdAt,value
2017-07-28T00:02:11.491Z,76.50
2017-07-28T00:04:40.402Z,76.50
2017-07-28T00:07:09.194Z,76.50
2017-07-28T00:09:38.052Z,76.50
2017-07-28T00:12:07.280Z,76.80
2017-07-28T00:14:35.501Z,76.80
2017-07-28T00:17:03.760Z,76.80
2017-07-28T00:19:32.652Z,76.80
2017-07-28T00:22:01.549Z,76.80
2017-07-28T00:24:30.001Z,76.70
2017-07-28T00:26:58.875Z,76.60
2017-07-28T00:29:27.962Z,76.80
2017-07-28T00:31:56.845Z,76.70
2017-07-28T00:34:25.678Z,76.60
2017-07-28T00:36:54.627Z,76.70
2017-07-28T00:39:24.023Z,76.60
2017-07-28T00:41:53.593Z,76.50
2017-07-28T00:44:22.341Z,76.50
2017-07-28T00:46:51.198Z,76.30
2017-07-28T00:49:20.074Z,76.10
2017-07-28T00:51:48.767Z,76.30
2017-07-28T00:54:18.095Z,76.10
2017-07-28T00:56:47.377Z,76.00
2017-07-28T00:59:17.007Z,76.10
2017-07-28T01:01:46.020Z,75.80
2017-07-28T01:04:14.639Z,75.80
2017-07-28T01:06:42.904Z,75.80
2017-07-28T01:09:11.420Z,75.70
2017-07-28T01:11:39.928Z,75.50
2017-07-28T01:14:08.247Z,75.50
2017-07-28T01:16:37.266Z,75.70
2017-07-28T01:19:06.243Z,75.50
2017-07-28T01:21:35.076Z,75.30
2017-07-28T01:24:04.456Z,75.30
2017-07-28T01:26:33.574Z,75.30
2017-07-28T01:29:02.882Z,75.10
2017-07-28T01:31:31.228Z,75.10
2017-07-28T01:33:59.984Z,75.30
2017-07-28T01:36:28.587Z,75.30
2017-07-28T01:38:57.499Z,75.20
2017-07-28T01:41:25.963Z,75.10
2017-07-28T01:43:54.618Z,75.10
2017-07-28T01:46:23.079Z,75.20
2017-07-28T01:48:51.393Z,75.20
2017-07-28T01:51:20.401Z,75.00
2017-07-28T01:53:49.505Z,75.00
2017-07-28T01:56:18.198Z,75.00
2017-07-28T01:58:47.445Z,75.00
2017-07-28T02:01:16.352Z,75.10
2017-07-28T02:03:45.101Z,75.10
2017-07-28T02:06:13.771Z,75.00
2017-07-28T02:08:43.174Z,75.10
2017-07-28T02:11:11.668Z,75.10
2017-07-28T02:13:40.402Z,75.10
2017-07-28T02:16:08.731Z,75.10
2017-07-28T02:18:37.096Z,75.10
2017-07-28T02:21:06.554Z,75.10
2017-07-28T02:23:35.748Z,75.10
2017-07-28T02:26:04.879Z,75.10
2017-07-28T02:28:33.911Z,75.30
2017-07-28T02:31:03.134Z,75.60
2017-07-28T02:33:31.646Z,75.50
2017-07-28T02:36:00.810Z,75.50
2017-07-28T02:38:29.335Z,75.50
2017-07-28T02:40:59.337Z,75.60
2017-07-28T02:43:28.098Z,75.70
2017-07-28T02:45:56.847Z,75.60
2017-07-28T02:48:25.139Z,75.40
2017-07-28T02:50:53.703Z,75.20
2017-07-28T02:53:22.185Z,74.90
2017-07-28T02:55:53.088Z,74.80
2017-07-28T02:58:21.569Z,74.90
2017-07-28T03:00:50.006Z,74.70
2017-07-28T03:03:18.853Z,74.80
2017-07-28T03:05:47.796Z,74.80
2017-07-28T03:08:17.405Z,75.00
2017-07-28T03:10:45.651Z,74.90
2017-07-28T03:13:14.571Z,75.00
2017-07-28T03:15:43.938Z,74.90
2017-07-28T03:18:12.827Z,74.70
2017-07-28T03:20:41.847Z,74.70
2017-07-28T03:23:10.497Z,74.80
2017-07-28T03:25:39.152Z,74.80
2017-07-28T03:28:08.389Z,74.80
2017-07-28T03:30:37.758Z,74.70
2017-07-28T03:33:06.401Z,74.80
2017-07-28T03:35:35.618Z,74.60
2017-07-28T03:38:04.092Z,74.50
2017-07-28T03:40:32.644Z,74.30
2017-07-28T03:43:01.595Z,74.30
2017-07-28T03:45:30.222Z,74.30
2017-07-28T03:47:59.578Z,74.40
2017-07-28T03:50:28.863Z,74.30
2017-07-28T03:52:58.234Z,74.20
2017-07-28T03:55:27.685Z,74.30
2017-07-28T03:57:56.986Z,74.30
2017-07-28T04:00:25.337Z,74.10
2017-07-28T04:02:54.706Z,74.30
2017-07-28T04:05:23.287Z,74.50
2017-07-28T04:07:52.223Z,74.30
2017-07-28T04:10:21.416Z,74.40
2017-07-28T04:12:50.323Z,74.40
2017-07-28T04:15:19.163Z,74.70
2017-07-28T04:17:47.985Z,74.50
2017-07-28T04:20:16.524Z,74.30
2017-07-28T04:22:45.214Z,74.50
2017-07-28T04:25:13.927Z,74.20
2017-07-28T04:27:42.246Z,74.30
2017-07-28T04:30:11.365Z,74.40
2017-07-28T04:32:40.211Z,74.40
2017-07-28T04:35:08.967Z,74.30
2017-07-28T04:37:37.968Z,74.40
2017-07-28T04:40:06.941Z,74.40
2017-07-28T04:42:35.790Z,74.20
2017-07-28T04:45:04.637Z,74.30
2017-07-28T04:47:34.113Z,74.20
2017-07-28T04:50:02.932Z,74.20
2017-07-28T04:52:31.355Z,74.20
2017-07-28T04:54:59.674Z,74.30
2017-07-28T04:57:28.696Z,73.90
2017-07-28T04:59:58.474Z,73.90
2017-07-28T05:02:27.416Z,73.90
2017-07-28T05:04:57.111Z,73.80
2017-07-28T05:07:25.765Z,73.70
2017-07-28T05:09:54.234Z,73.70
2017-07-28T05:12:23.021Z,73.70
2017-07-28T05:14:51.446Z,73.60
2017-07-28T05:17:19.764Z,73.50
2017-07-28T05:19:49.073Z,73.60
2017-07-28T05:22:17.947Z,73.40
2017-07-28T05:24:46.334Z,73.40
2017-07-28T05:27:14.941Z,73.30
2017-07-28T05:29:43.400Z,73.30
2017-07-28T05:32:12.596Z,73.20
2017-07-28T05:34:41.568Z,73.20
2017-07-28T05:37:09.931Z,73.10
2017-07-28T05:39:40.998Z,73.00
2017-07-28T05:42:10.385Z,73.00
2017-07-28T05:44:39.070Z,72.60
2017-07-28T05:47:07.415Z,72.50
2017-07-28T05:49:36.782Z,72.30
2017-07-28T05:52:05.862Z,71.80
2017-07-28T05:54:35.240Z,71.90
2017-07-28T05:57:04.207Z,71.90
2017-07-28T05:59:32.629Z,72.00
2017-07-28T06:02:01.058Z,71.60
2017-07-28T06:04:29.986Z,71.50
2017-07-28T06:06:59.049Z,71.70
2017-07-28T06:09:27.911Z,71.40
2017-07-28T06:11:57.459Z,71.60
2017-07-28T06:14:26.193Z,71.50
2017-07-28T06:16:54.977Z,71.40
2017-07-28T06:19:23.753Z,70.80
2017-07-28T06:21:52.705Z,70.00
2017-07-28T06:24:21.562Z,69.10
2017-07-28T06:26:49.796Z,69.40
2017-07-28T06:29:19.743Z,68.50
2017-07-28T06:31:49.444Z,68.50
2017-07-28T06:34:19.259Z,68.50
2017-07-28T06:36:48.196Z,68.60
2017-07-28T06:39:16.730Z,68.60
2017-07-28T06:41:45.825Z,68.30
2017-07-28T06:44:14.563Z,68.30
2017-07-28T06:46:43.054Z,67.50
2017-07-28T06:49:12.161Z,67.70
2017-07-28T06:51:41.360Z,67.00
2017-07-28T06:54:10.238Z,66.40
2017-07-28T06:56:38.389Z,66.20
2017-07-28T06:59:07.586Z,65.70
2017-07-28T07:01:36.838Z,66.10
2017-07-28T07:04:05.557Z,65.70
2017-07-28T07:06:34.860Z,65.30
2017-07-28T07:09:03.561Z,65.50
2017-07-28T07:11:32.727Z,65.40
2017-07-28T07:14:00.788Z,65.00
2017-07-28T07:16:29.550Z,64.00
2017-07-28T07:18:59.119Z,63.10
2017-07-28T07:21:28.254Z,63.10
2017-07-28T07:23:56.626Z,62.10
2017-07-28T07:26:26.320Z,62.30
2017-07-28T07:28:55.302Z,62.20
2017-07-28T07:31:24.071Z,62.20
2017-07-28T07:33:52.483Z,62.10
2017-07-28T07:36:26.979Z,62.10
2017-07-28T07:38:55.257Z,62.70
2017-07-28T07:41:23.745Z,61.80
2017-07-28T07:43:54.279Z,62.80
2017-07-28T07:46:22.535Z,62.60
2017-07-28T07:48:51.158Z,63.00
2017-07-28T07:51:20.485Z,63.10
2017-07-28T07:53:49.110Z,62.80
2017-07-28T07:56:16.988Z,62.90
2017-07-28T07:58:46.004Z,62.90
2017-07-28T08:01:15.005Z,63.40
2017-07-28T08:03:44.521Z,62.60
2017-07-28T08:06:14.536Z,62.90
2017-07-28T08:08:42.611Z,63.10
2017-07-28T08:11:11.048Z,62.20
2017-07-28T08:13:40.087Z,63.20
2017-07-28T08:16:08.619Z,62.20
2017-07-28T08:18:36.563Z,61.40
2017-07-28T08:21:04.675Z,61.90
2017-07-28T08:23:33.300Z,61.60
2017-07-28T08:26:01.621Z,62.00
2017-07-28T08:28:30.170Z,60.70
2017-07-28T08:30:58.988Z,61.00
2017-07-28T08:33:29.335Z,61.10
2017-07-28T08:35:57.793Z,61.20
2017-07-28T08:38:27.016Z,61.70
2017-07-28T08:40:55.473Z,61.00
2017-07-28T08:43:24.044Z,60.90
2017-07-28T08:45:53.003Z,61.20
2017-07-28T08:48:21.592Z,59.80
2017-07-28T08:50:50.400Z,60.40
2017-07-28T08:53:19.257Z,59.70
2017-07-28T08:55:48.669Z,59.90
2017-07-28T08:58:17.869Z,59.90
2017-07-28T09:00:46.296Z,59.40
2017-07-28T09:03:14.854Z,59.60
2017-07-28T09:05:43.631Z,59.00
2017-07-28T09:08:12.586Z,59.20
2017-07-28T09:10:41.422Z,59.00
2017-07-28T09:13:10.401Z,59.00
2017-07-28T09:15:39.264Z,59.20
2017-07-28T09:18:07.982Z,60.00
2017-07-28T09:20:36.771Z,60.00
2017-07-28T09:23:05.372Z,59.20
2017-07-28T09:25:33.739Z,58.90
2017-07-28T09:28:02.060Z,59.10
2017-07-28T09:30:30.854Z,59.50
2017-07-28T09:32:59.933Z,59.50
2017-07-28T09:35:29.693Z,59.40
2017-07-28T09:37:58.416Z,59.00
2017-07-28T09:40:27.106Z,59.00
2017-07-28T09:42:56.230Z,59.00
2017-07-28T09:45:25.009Z,58.90
2017-07-28T09:47:53.812Z,58.80
2017-07-28T09:50:22.567Z,59.20
2017-07-28T09:52:51.108Z,58.40
2017-07-28T09:55:19.069Z,58.40
2017-07-28T10:00:21.840Z,56.90
2017-07-28T10:02:50.638Z,55.50
2017-07-28T10:05:18.865Z,54.90
2017-07-28T10:07:47.319Z,54.70
2017-07-28T10:10:17.296Z,54.70
2017-07-28T10:12:46.202Z,54.80
2017-07-28T10:15:15.330Z,54.10
2017-07-28T10:17:45.340Z,54.20
2017-07-28T10:20:13.844Z,55.20
2017-07-28T10:22:42.560Z,55.20
2017-07-28T10:25:11.286Z,55.30
2017-07-28T10:27:40.464Z,56.00
2017-07-28T10:30:09.439Z,56.00
2017-07-28T10:32:38.539Z,56.70
2017-07-28T10:35:06.861Z,56.90
2017-07-28T10:37:36.008Z,56.20
2017-07-28T10:40:04.825Z,56.20
2017-07-28T10:42:33.544Z,56.20
2017-07-28T10:45:02.494Z,55.30
2017-07-28T10:47:31.369Z,55.30
2017-07-28T10:50:00.239Z,56.60
2017-07-28T10:52:28.737Z,55.60
2017-07-28T10:54:58.165Z,56.40
2017-07-28T10:57:26.886Z,56.40
2017-07-28T10:59:55.169Z,55.90
2017-07-28T11:02:24.808Z,55.30
2017-07-28T11:04:54.404Z,56.20
2017-07-28T11:07:23.036Z,56.20
2017-07-28T11:09:52.375Z,55.80
2017-07-28T11:12:21.261Z,54.60
2017-07-28T11:14:50.175Z,56.00
2017-07-28T11:17:18.749Z,56.00
2017-07-28T11:19:47.415Z,55.10
2017-07-28T11:22:16.396Z,56.00
2017-07-28T11:24:45.512Z,55.60
2017-07-28T11:27:14.780Z,55.50
2017-07-28T11:29:43.641Z,56.10
2017-07-28T11:32:12.123Z,56.60
2017-07-28T11:34:41.486Z,56.60
2017-07-28T11:37:09.869Z,56.10
2017-07-28T11:39:38.955Z,55.90
2017-07-28T11:42:07.959Z,55.50
2017-07-28T11:44:35.958Z,55.30
2017-07-28T11:47:05.916Z,55.60
2017-07-28T11:49:35.843Z,55.60
2017-07-28T11:52:05.004Z,56.80
2017-07-28T11:54:33.657Z,56.80
2017-07-28T11:57:02.975Z,56.10
2017-07-28T11:59:32.303Z,57.30
2017-07-28T12:02:01.562Z,57.00
2017-07-28T12:07:06.830Z,55.70
2017-07-28T12:09:35.783Z,55.70
2017-07-28T12:12:05.323Z,55.60
2017-07-28T12:14:33.687Z,55.20
2017-07-28T12:17:02.453Z,55.90
2017-07-28T12:19:31.425Z,54.40
2017-07-28T12:22:01.364Z,54.40
2017-07-28T12:24:29.886Z,54.30
2017-07-28T12:26:59.569Z,52.70
2017-07-28T12:29:28.878Z,54.00
2017-07-28T12:31:57.395Z,53.70
2017-07-28T12:34:26.204Z,53.20
2017-07-28T12:36:56.761Z,53.90
2017-07-28T12:39:26.037Z,53.90
2017-07-28T12:41:55.283Z,54.10
2017-07-28T12:44:23.643Z,54.50
2017-07-28T12:46:52.940Z,54.00
2017-07-28T12:49:21.153Z,54.70
2017-07-28T12:51:49.925Z,54.90
2017-07-28T12:54:18.322Z,55.40
2017-07-28T12:56:47.031Z,54.30
2017-07-28T12:59:15.837Z,54.40
2017-07-28T13:01:44.146Z,54.40
2017-07-28T13:04:13.634Z,53.40
2017-07-28T13:06:42.517Z,54.30
2017-07-28T13:09:11.356Z,54.60
2017-07-28T13:11:40.152Z,56.10
2017-07-28T13:14:09.836Z,54.30
2017-07-28T13:16:39.604Z,53.80
2017-07-28T13:19:08.667Z,53.10
2017-07-28T13:21:38.042Z,53.10
2017-07-28T13:24:06.087Z,53.50
2017-07-28T13:26:36.865Z,52.20
2017-07-28T13:29:05.512Z,52.20
2017-07-28T13:31:34.979Z,52.60
2017-07-28T13:34:03.654Z,53.10
2017-07-28T13:36:33.741Z,52.50
2017-07-28T13:39:02.169Z,52.50
2017-07-28T13:41:31.658Z,52.30
2017-07-28T13:44:00.498Z,52.20
2017-07-28T13:46:45.678Z,52.20
2017-07-28T13:49:15.169Z,52.40
2017-07-28T13:51:44.520Z,51.70
2017-07-28T13:54:12.869Z,52.20
2017-07-28T13:56:41.591Z,51.90
2017-07-28T13:59:09.917Z,51.30
2017-07-28T14:01:38.424Z,51.60
2017-07-28T14:04:07.732Z,50.30
2017-07-28T14:06:36.264Z,50.30
2017-07-28T14:09:05.303Z,50.30
2017-07-28T14:11:33.787Z,51.00
2017-07-28T14:14:03.191Z,50.40
2017-07-28T14:16:32.825Z,49.40
2017-07-28T14:19:01.727Z,49.80
2017-07-28T14:21:30.817Z,49.00
2017-07-28T14:23:59.396Z,48.20
2017-07-28T14:26:28.078Z,47.90
2017-07-28T14:28:56.991Z,47.80
2017-07-28T14:31:25.509Z,48.30
2017-07-28T14:33:54.768Z,48.40
2017-07-28T14:36:24.409Z,48.40
2017-07-28T14:38:53.151Z,47.90
2017-07-28T14:41:21.444Z,47.30
2017-07-28T14:43:50.096Z,46.60
2017-07-28T14:46:19.044Z,47.10
2017-07-28T14:48:47.415Z,47.10
2017-07-28T14:51:16.266Z,47.70
2017-07-28T14:53:45.212Z,48.30
2017-07-28T14:56:14.415Z,48.30
2017-07-28T14:58:43.201Z,48.30
2017-07-28T15:01:12.151Z,48.40
2017-07-28T15:03:41.769Z,50.20
2017-07-28T15:06:09.787Z,50.20
2017-07-28T15:08:38.635Z,48.60
2017-07-28T15:11:07.226Z,48.80
2017-07-28T15:13:36.249Z,48.70
2017-07-28T15:16:04.718Z,48.40
2017-07-28T15:18:33.434Z,49.80
2017-07-28T15:21:01.492Z,49.00
2017-07-28T15:23:30.671Z,49.40
2017-07-28T15:25:59.330Z,49.50
2017-07-28T15:28:28.030Z,49.80
2017-07-28T15:30:57.744Z,50.40
2017-07-28T15:33:26.185Z,50.70
2017-07-28T15:35:56.406Z,51.10
2017-07-28T15:38:25.098Z,51.10
2017-07-28T15:40:53.449Z,50.70
2017-07-28T15:43:22.427Z,50.50
2017-07-28T15:45:52.485Z,50.50
2017-07-28T15:48:21.936Z,50.70
2017-07-28T15:50:50.635Z,51.10
2017-07-28T15:53:19.483Z,50.80
2017-07-28T15:55:47.801Z,50.80
2017-07-28T15:58:16.666Z,51.40
2017-07-28T16:00:45.241Z,52.00
2017-07-28T16:03:13.731Z,51.50
2017-07-28T16:05:42.352Z,50.90
2017-07-28T16:08:11.345Z,51.60
2017-07-28T16:10:40.774Z,51.30
2017-07-28T16:13:09.805Z,49.30
2017-07-28T16:15:39.202Z,50.00
2017-07-28T16:18:07.499Z,50.00
2017-07-28T16:20:35.734Z,50.00
2017-07-28T16:23:04.507Z,49.70
2017-07-28T16:25:33.115Z,50.00
2017-07-28T16:28:01.844Z,49.70
2017-07-28T16:30:30.525Z,49.70
2017-07-28T16:32:59.635Z,49.40
2017-07-28T16:35:28.221Z,49.80
2017-07-28T16:37:57.319Z,49.20
2017-07-28T16:40:25.949Z,49.70
2017-07-28T16:42:54.578Z,49.70
2017-07-28T16:45:23.388Z,49.30
2017-07-28T16:47:51.971Z,49.80
2017-07-28T16:50:20.217Z,49.80
2017-07-28T16:52:49.226Z,50.30
2017-07-28T16:55:17.638Z,50.30
2017-07-28T16:57:46.308Z,50.70
2017-07-28T17:00:14.793Z,51.00
2017-07-28T17:02:43.249Z,51.40
2017-07-28T17:05:12.916Z,50.70
2017-07-28T17:07:41.742Z,51.00
2017-07-28T17:10:10.481Z,50.90
2017-07-28T17:12:39.504Z,50.80
2017-07-28T17:15:09.317Z,51.30
2017-07-28T17:17:37.504Z,51.50
2017-07-28T17:20:05.864Z,51.00
2017-07-28T17:22:34.466Z,50.70
2017-07-28T17:25:03.506Z,50.80
2017-07-28T17:27:32.453Z,51.30
2017-07-28T17:30:00.767Z,51.30
2017-07-28T17:32:29.948Z,51.00
2017-07-28T17:34:58.142Z,51.40
2017-07-28T17:37:26.716Z,51.10
2017-07-28T17:39:55.261Z,51.10
2017-07-28T17:42:24.500Z,51.00
2017-07-28T17:44:53.645Z,51.40
2017-07-28T17:47:22.729Z,51.30
2017-07-28T17:49:51.128Z,51.30
2017-07-28T17:52:20.798Z,51.30
2017-07-28T17:54:49.482Z,51.50
2017-07-28T17:57:18.501Z,52.00
2017-07-28T17:59:46.841Z,52.10
2017-07-28T18:02:15.598Z,52.10
2017-07-28T18:04:44.870Z,52.20
2017-07-28T18:07:13.390Z,52.80
2017-07-28T18:09:42.199Z,52.70
2017-07-28T18:12:10.807Z,52.80
2017-07-28T18:14:39.547Z,53.20
2017-07-28T18:17:08.078Z,53.20
2017-07-28T18:19:37.545Z,53.50
2017-07-28T18:22:06.548Z,53.40
2017-07-28T18:24:36.124Z,54.00
2017-07-28T18:27:05.311Z,54.30
2017-07-28T18:29:34.761Z,54.30
2017-07-28T18:32:04.134Z,54.30
2017-07-28T18:34:32.405Z,54.60
2017-07-28T18:37:01.477Z,54.40
2017-07-28T18:39:30.426Z,54.50
2017-07-28T18:41:59.072Z,54.50
2017-07-28T18:44:27.998Z,54.50
2017-07-28T18:46:56.778Z,54.50
2017-07-28T18:49:25.414Z,54.80
2017-07-28T18:51:54.646Z,54.80
2017-07-28T18:54:23.042Z,55.00
2017-07-28T18:56:52.544Z,55.20
2017-07-28T18:59:22.059Z,55.30
2017-07-28T19:01:50.591Z,55.60
2017-07-28T19:04:18.624Z,55.60
2017-07-28T19:06:47.416Z,56.50
2017-07-28T19:09:16.250Z,56.60
2017-07-28T19:11:45.182Z,56.60
2017-07-28T19:14:14.136Z,56.40
2017-07-28T19:16:43.360Z,56.60
2017-07-28T19:19:11.856Z,56.90
2017-07-28T19:21:40.773Z,57.00
2017-07-28T19:24:09.923Z,57.00
2017-07-28T19:26:38.698Z,57.00
2017-07-28T19:29:07.134Z,56.80
2017-07-28T19:31:35.952Z,56.80
2017-07-28T19:34:04.673Z,56.70
2017-07-28T19:36:32.796Z,56.70
2017-07-28T19:39:00.869Z,56.80
2017-07-28T19:41:29.065Z,57.20
2017-07-28T19:43:57.860Z,57.50
2017-07-28T19:46:26.331Z,57.50
2017-07-28T19:48:54.592Z,57.70
2017-07-28T19:51:24.171Z,58.20
2017-07-28T19:53:52.823Z,58.20
2017-07-28T19:56:21.349Z,57.40
2017-07-28T20:01:41.971Z,57.80
2017-07-28T20:04:10.389Z,57.50
2017-07-28T20:06:38.716Z,57.70
2017-07-28T20:09:07.814Z,57.90
2017-07-28T20:11:36.234Z,57.90
2017-07-28T20:14:05.309Z,58.10
2017-07-28T20:16:33.522Z,58.10
2017-07-28T20:19:02.080Z,58.10
2017-07-28T20:21:30.244Z,57.90
2017-07-28T20:23:59.316Z,57.90
2017-07-28T20:26:27.818Z,57.60
2017-07-28T20:28:56.203Z,57.80
2017-07-28T20:31:25.061Z,57.70
2017-07-28T20:33:53.527Z,57.70
2017-07-28T20:36:21.827Z,58.00
2017-07-28T20:38:49.972Z,58.20
2017-07-28T20:41:18.430Z,58.30
2017-07-28T20:43:46.737Z,58.40
2017-07-28T20:46:17.087Z,58.40
2017-07-28T20:48:45.758Z,58.20
2017-07-28T20:51:14.066Z,58.30
2017-07-28T20:53:42.597Z,58.80
2017-07-28T20:56:10.750Z,59.70
2017-07-28T20:58:39.216Z,60.90
2017-07-28T21:03:59.750Z,61.00
2017-07-28T21:06:28.860Z,61.80
2017-07-28T21:08:57.885Z,62.40
2017-07-28T21:11:27.344Z,62.30
2017-07-28T21:14:07.322Z,62.30
2017-07-28T21:16:35.797Z,62.20
2017-07-28T21:19:04.974Z,61.70
2017-07-28T21:21:33.440Z,61.80
2017-07-28T21:24:02.836Z,61.60
2017-07-28T21:26:31.195Z,61.60
2017-07-28T21:28:59.664Z,61.60
2017-07-28T21:31:28.669Z,61.60
2017-07-28T21:33:57.663Z,61.20
2017-07-28T21:36:26.421Z,60.50
2017-07-28T21:38:55.408Z,60.70
2017-07-28T21:41:23.703Z,60.80
2017-07-28T21:43:52.822Z,60.70
2017-07-28T21:46:22.226Z,60.70
2017-07-28T21:48:51.273Z,60.70
2017-07-28T21:51:19.279Z,60.90
2017-07-28T21:53:47.872Z,61.40
2017-07-28T21:56:16.936Z,61.50
2017-07-28T21:58:45.506Z,61.50
2017-07-28T22:01:14.312Z,61.60
2017-07-28T22:03:42.622Z,61.40
2017-07-28T22:06:10.633Z,61.60
2017-07-28T22:08:39.118Z,61.70
2017-07-28T22:11:07.500Z,61.70
2017-07-28T22:13:36.657Z,62.10
2017-07-28T22:16:06.348Z,62.40
2017-07-28T22:18:34.545Z,62.40
2017-07-28T22:21:02.647Z,62.60
2017-07-28T22:23:31.446Z,62.90
2017-07-28T22:25:59.571Z,62.80
2017-07-28T22:28:28.416Z,62.80
2017-07-28T22:30:57.883Z,63.10
2017-07-28T22:33:26.205Z,63.40
2017-07-28T22:35:54.247Z,63.20
2017-07-28T22:38:22.594Z,63.10
2017-07-28T22:40:50.567Z,63.00
2017-07-28T22:43:19.193Z,63.30
2017-07-28T22:45:47.923Z,63.30
2017-07-28T22:48:16.947Z,63.60
2017-07-28T22:50:45.205Z,63.80
2017-07-28T22:53:13.849Z,64.10
2017-07-28T22:55:42.384Z,64.10
2017-07-28T22:58:11.265Z,64.00
2017-07-28T23:00:39.895Z,64.00
2017-07-28T23:03:08.248Z,64.10
2017-07-28T23:05:36.594Z,64.20
2017-07-28T23:08:05.606Z,64.30
2017-07-28T23:10:34.224Z,64.40
2017-07-28T23:13:03.121Z,64.40
2017-07-28T23:15:33.151Z,64.70
2017-07-28T23:18:04.196Z,64.90
2017-07-28T23:20:32.918Z,64.90
2017-07-28T23:23:01.462Z,65.20
2017-07-28T23:25:30.397Z,65.30
2017-07-28T23:27:58.957Z,65.30
2017-07-28T23:30:27.260Z,65.50
2017-07-28T23:32:55.616Z,65.60
2017-07-28T23:35:23.984Z,65.60
2017-07-28T23:37:52.462Z,65.80
2017-07-28T23:40:20.798Z,66.10
2017-07-28T23:42:49.625Z,66.10
2017-07-28T23:45:18.498Z,66.20
2017-07-28T23:47:47.543Z,66.80
2017-07-28T23:50:16.083Z,66.70
2017-07-28T23:52:44.649Z,66.60
2017-07-28T23:55:12.830Z,66.30
2017-07-28T23:57:41.564Z,66.20
